Nearby METAR Reports

 

KMTN - Baltimore/Martin, Maryland, USA
Distance from station: SSE 8mi, 13km
Updated: Thu, 02-Jul-2015 5:33am EDT
Clear
Clear
 Wind from WNW
Wind: WNW 3 mph , 6 km/h
Temperature: 66°F , 19°C
Dew Point: 64°F , 18°C
Humidity: 94%
Barometer: 29.89 inHg , 1012.2 hPa
Clouds: Clear
Visibility: 10 miles , 16 km
2015/07/02 09:33 KMTN 020933Z AUTO 30003KT 10SM CLR 19/18 A2989 RMK AO2
KDMH - Baltimore/Dwntwn, Maryland, USA
Distance from station: SW 12mi, 19km
Updated: Thu, 02-Jul-2015 4:54am EDT

 
Temperature: 72°F , 22°C
Dew Point: 63°F , 17°C
Humidity: 73%
Barometer: 29.88 inHg , 1011.9 hPa
2015/07/02 08:54 KDMH 020854Z AUTO 22/17 A2988 RMK AO1 SLP118 T02220167 55006
 
KBWI - Balto/Wash Intl, Maryland, USA
Distance from station: SSW 20mi, 33km
Updated: Thu, 02-Jul-2015 4:54am EDT
Mostly cloudy
Mostly cloudy
 Wind from calm
Wind: Calm
Temperature: 66°F , 19°C
Dew Point: 64°F , 18°C
Humidity: 94%
Barometer: 29.87 inHg , 1011.5 hPa
Clouds: Mostly cloudy
Visibility: 8 miles , 13 km
Cloud details: Few Clouds 6500 ft
Partly cloudy 9000 ft
Mostly cloudy 25000 ft
2015/07/02 08:54 KBWI 020854Z 00000KT 8SM FEW065 SCT090 BKN250 19/18 A2987 RMK AO2 SLP114 60000 T01890178 56007
KDMW - Carroll Cnty, Maryland, USA
Distance from station: WNW 30mi, 48km
Updated: Thu, 02-Jul-2015 5:40am EDT
Partly cloudy
Partly cloudy
 Wind from calm
Wind: Calm
Temperature: 64°F , 18°C
Dew Point: 61°F , 16°C
Humidity: 88%
Barometer: 29.91 inHg , 1012.9 hPa
Clouds: Partly cloudy
Visibility: 7 miles , 11 km
Cloud details: Partly cloudy 8000 ft
Partly cloudy 9000 ft
2015/07/02 09:40 KDMW 020940Z AUTO 00000KT 7SM SCT080 SCT090 18/16 A2991 RMK AO2 LTG DSNT SE
 
KNAK - Annapolis/Naval, Maryland, USA
Distance from station: S 30mi, 48km
Updated: Thu, 02-Jul-2015 4:54am EDT
Mist, Clear
Mist, Clear
 Wind from varies
Wind: varies 3 mph , 6 km/h
Temperature: 72°F , 22°C
Dew Point: 70°F , 21°C
Humidity: 94%
Barometer: 29.86 inHg , 1011.2 hPa
Summary: Mist
Clouds: Clear
Visibility: 5 miles , 8 km
2015/07/02 08:54 KNAK 020854Z AUTO VRB03KT 5SM BR CLR 22/21 A2986 RMK AO2 SLP113 T02220206 58009
KW29 - Stevensville, Maryland, USA
Distance from station: SSE 31mi, 50km
Updated: Thu, 02-Jul-2015 5:39am EDT
Nearby Thunderstorm
Nearby Thunderstorm
 Wind from calm
Wind: Calm
Temperature: 70°F , 21°C
Dew Point: 70°F , 21°C
Humidity: 100%
Barometer: 29.87 inHg , 1011.5 hPa
Summary: Nearby Thunderstorm
Visibility: 7 miles , 11 km
2015/07/02 09:39 KW29 020939Z AUTO 00000KT 7SM VCTS 21/21 A2987 RMK AO1 LTG DSNT S
 
KCGS - College Park, Maryland, USA
Distance from station: SW 38mi, 61km
Updated: Thu, 02-Jul-2015 5:35am EDT
Partly cloudy
Partly cloudy
 Wind from calm
Wind: Calm
Temperature: 66°F , 19°C
Dew Point: 66°F , 19°C
Humidity: 100%
Barometer: 29.88 inHg , 1011.9 hPa
Clouds: Partly cloudy
Visibility: 7 miles , 11 km
Cloud details: Partly cloudy 5000 ft
Partly cloudy 6000 ft
Partly cloudy 8500 ft
2015/07/02 09:35 KCGS 020935Z AUTO 00000KT 7SM SCT050 SCT060 SCT085 19/19 A2988 RMK AO1
KGAI - Gaithersburg, Maryland, USA
Distance from station: WSW 40mi, 65km
Updated: Thu, 02-Jul-2015 5:35am EDT
Overcast
Overcast
 Wind from calm
Wind: Calm
Temperature: 66°F , 19°C
Dew Point: 63°F , 17°C
Humidity: 88%
Barometer: 29.94 inHg , 1013.9 hPa
Clouds: Overcast
Visibility: 8 miles , 13 km
Cloud details: Overcast 5000 ft
2015/07/02 09:35 KGAI 020935Z AUTO 00000KT 8SM OVC050 19/17 A2994 RMK AO1
 
KTHV - York, Pennsylvania, USA
Distance from station: NNW 40mi, 65km
Updated: Thu, 02-Jul-2015 4:53am EDT
Mist, Partly cloudy
Mist, Partly cloudy
 Wind from NW
Wind: NW 3 mph , 6 km/h
Temperature: 57°F , 14°C
Dew Point: 57°F , 14°C
Humidity: 100%
Barometer: 29.90 inHg , 1012.5 hPa
Summary: Mist
Clouds: Partly cloudy
Visibility: 5 miles , 8 km
Cloud details: Partly cloudy 7000 ft
2015/07/02 08:53 KTHV 020853Z AUTO 32003KT 5SM BR SCT070 14/14 A2990 RMK AO2 SLP124 T01440139 56004 $
KFDK - Frederick, Maryland, USA
Distance from station: W 47mi, 75km
Updated: Thu, 02-Jul-2015 5:35am EDT
Mist, Overcast
Mist, Overcast
 Wind from calm
Wind: Calm
Temperature: 63°F , 17°C
Dew Point: 63°F , 17°C
Humidity: 100%
Barometer: 29.92 inHg , 1013.2 hPa
Summary: Mist
Clouds: Overcast
Visibility: 5 miles , 8 km
Cloud details: Partly cloudy 7000 ft
Mostly cloudy 9000 ft
Overcast 11000 ft
2015/07/02 09:35 KFDK 020935Z AUTO 00000KT 5SM BR SCT070 BKN090 OVC110 17/17 A2992 RMK AO2 LTG DSNT E AND SE
 
KESN - Easton/Newnam, Maryland, USA
Distance from station: SSE 48mi, 78km
Updated: Thu, 02-Jul-2015 5:54am EDT
Mist, Clear
Mist, Clear
 Wind from calm
Wind: Calm
Temperature: 70°F , 21°C
Dew Point: 70°F , 21°C
Humidity: 100%
Barometer: 29.91 inHg , 1012.9 hPa
Summary: Mist
Clouds: Clear
Visibility: 4 miles , 6 km
2015/07/02 09:54 KESN 020954Z AUTO 00000KT 4SM BR CLR 21/21 A2991 RMK AO2 T02070207
KDCA - Washington/Natl, Washington D.c., USA
Distance from station: SW 49mi, 79km
Updated: Thu, 02-Jul-2015 4:52am EDT
Mist, Mostly cloudy
Mist, Mostly cloudy
 Wind from N
Wind: N 3 mph , 6 km/h
Temperature: 73°F , 23°C
Dew Point: 70°F , 21°C
Humidity: 89%
Barometer: 29.88 inHg , 1011.9 hPa
Summary: Mist
Clouds: Mostly cloudy
Visibility: 6 miles , 10 km
Cloud details: Few Clouds 5000 ft
Mostly cloudy 25000 ft
2015/07/02 08:52 KDCA 020852Z 01003KT 6SM BR FEW050 BKN250 23/21 A2988 RMK AO2 SLP116 T02280211 56009 $
 
KLNS - Lancaster, Pennsylvania, USA
Distance from station: N 49mi, 79km
Updated: Thu, 02-Jul-2015 4:53am EDT
Mist, Clear
Mist, Clear
 Wind from calm
Wind: Calm
Temperature: 63°F , 17°C
Dew Point: 59°F , 15°C
Humidity: 88%
Barometer: 29.89 inHg , 1012.2 hPa
Summary: Mist
Clouds: Clear
Visibility: 5 miles , 8 km
2015/07/02 08:53 KLNS 020853Z AUTO 00000KT 5SM BR CLR 17/15 A2989 RMK AO2 SLP118 T01670150 56006
KILG - Wilmington, Delaware, USA
Distance from station: ENE 50mi, 81km
Updated: Thu, 02-Jul-2015 4:51am EDT
Clear
Clear
 Wind from calm
Wind: Calm
Temperature: 66°F , 19°C
Dew Point: 63°F , 17°C
Humidity: 88%
Barometer: 29.89 inHg , 1012.2 hPa
Clouds: Clear
Visibility: 8 miles , 13 km
2015/07/02 08:51 KILG 020851Z 00000KT 8SM CLR 19/17 A2989 RMK AO2 SLP120 T01890167 55004